sensor_id;sensor_type;location;lat;lon;timestamp;temperature;humidity
29341;DHT22;16337;59.536;13.468;2022-07-09T00:02:09;13.00;99.90
29341;DHT22;16337;59.536;13.468;2022-07-09T00:04:35;13.00;99.90
29341;DHT22;16337;59.536;13.468;2022-07-09T00:07:01;12.90;99.90
29341;DHT22;16337;59.536;13.468;2022-07-09T00:09:26;12.90;99.90
29341;DHT22;16337;59.536;13.468;2022-07-09T00:11:52;13.00;99.90
29341;DHT22;16337;59.536;13.468;2022-07-09T00:14:18;13.00;99.90
29341;DHT22;16337;59.536;13.468;2022-07-09T00:16:44;13.00;99.90
29341;DHT22;16337;59.536;13.468;2022-07-09T00:19:10;13.00;99.90
29341;DHT22;16337;59.536;13.468;2022-07-09T00:21:36;12.90;99.90
29341;DHT22;16337;59.536;13.468;2022-07-09T00:24:02;12.90;99.90
29341;DHT22;16337;59.536;13.468;2022-07-09T00:26:27;12.80;99.90
29341;DHT22;16337;59.536;13.468;2022-07-09T00:28:53;12.80;99.90
29341;DHT22;16337;59.536;13.468;2022-07-09T00:31:19;12.80;99.90
29341;DHT22;16337;59.536;13.468;2022-07-09T00:33:44;12.80;99.90
29341;DHT22;16337;59.536;13.468;2022-07-09T00:36:10;12.80;99.90
29341;DHT22;16337;59.536;13.468;2022-07-09T00:38:36;12.80;99.90
29341;DHT22;16337;59.536;13.468;2022-07-09T00:41:01;12.80;99.90
29341;DHT22;16337;59.536;13.468;2022-07-09T00:43:27;12.70;99.90
29341;DHT22;16337;59.536;13.468;2022-07-09T00:45:53;12.70;99.90
29341;DHT22;16337;59.536;13.468;2022-07-09T00:48:18;12.70;99.90
29341;DHT22;16337;59.536;13.468;2022-07-09T00:50:46;12.80;99.90
29341;DHT22;16337;59.536;13.468;2022-07-09T00:53:16;12.80;99.90
29341;DHT22;16337;59.536;13.468;2022-07-09T00:55:44;12.70;99.90
29341;DHT22;16337;59.536;13.468;2022-07-09T00:58:16;12.70;99.90
29341;DHT22;16337;59.536;13.468;2022-07-09T01:00:43;12.80;99.90
29341;DHT22;16337;59.536;13.468;2022-07-09T01:03:09;12.70;99.90
29341;DHT22;16337;59.536;13.468;2022-07-09T01:05:35;12.70;99.90
29341;DHT22;16337;59.536;13.468;2022-07-09T01:08:05;12.60;99.90
29341;DHT22;16337;59.536;13.468;2022-07-09T01:10:34;12.60;99.90
29341;DHT22;16337;59.536;13.468;2022-07-09T01:13:00;12.60;99.90
29341;DHT22;16337;59.536;13.468;2022-07-09T01:15:26;12.60;99.90
29341;DHT22;16337;59.536;13.468;2022-07-09T01:17:52;12.50;99.90
29341;DHT22;16337;59.536;13.468;2022-07-09T01:20:21;12.50;99.90
29341;DHT22;16337;59.536;13.468;2022-07-09T01:22:47;12.40;99.90
29341;DHT22;16337;59.536;13.468;2022-07-09T01:25:16;12.40;99.90
29341;DHT22;16337;59.536;13.468;2022-07-09T01:27:42;12.30;99.90
29341;DHT22;16337;59.536;13.468;2022-07-09T01:30:08;12.20;99.90
29341;DHT22;16337;59.536;13.468;2022-07-09T01:32:34;12.20;99.90
29341;DHT22;16337;59.536;13.468;2022-07-09T01:35:00;12.10;99.90
29341;DHT22;16337;59.536;13.468;2022-07-09T01:37:26;12.10;99.90
29341;DHT22;16337;59.536;13.468;2022-07-09T01:39:51;12.10;99.90
29341;DHT22;16337;59.536;13.468;2022-07-09T01:42:18;12.10;99.90
29341;DHT22;16337;59.536;13.468;2022-07-09T01:44:45;12.00;99.90
29341;DHT22;16337;59.536;13.468;2022-07-09T01:47:11;12.00;99.90
29341;DHT22;16337;59.536;13.468;2022-07-09T01:49:37;12.00;99.90
29341;DHT22;16337;59.536;13.468;2022-07-09T01:52:03;11.90;99.90
29341;DHT22;16337;59.536;13.468;2022-07-09T01:54:29;11.90;99.90
29341;DHT22;16337;59.536;13.468;2022-07-09T01:56:55;11.80;99.90
29341;DHT22;16337;59.536;13.468;2022-07-09T01:59:21;11.70;99.90
29341;DHT22;16337;59.536;13.468;2022-07-09T02:01:47;11.60;99.90
29341;DHT22;16337;59.536;13.468;2022-07-09T02:04:13;11.50;99.90
29341;DHT22;16337;59.536;13.468;2022-07-09T02:06:38;11.50;99.90
29341;DHT22;16337;59.536;13.468;2022-07-09T02:09:04;11.40;99.90
29341;DHT22;16337;59.536;13.468;2022-07-09T02:11:30;11.20;99.90
29341;DHT22;16337;59.536;13.468;2022-07-09T02:13:55;11.20;99.90
29341;DHT22;16337;59.536;13.468;2022-07-09T02:16:21;11.10;99.90
29341;DHT22;16337;59.536;13.468;2022-07-09T02:18:47;11.00;99.90
29341;DHT22;16337;59.536;13.468;2022-07-09T02:21:13;10.90;99.90
29341;DHT22;16337;59.536;13.468;2022-07-09T02:23:38;10.80;99.90
29341;DHT22;16337;59.536;13.468;2022-07-09T02:26:04;10.80;99.90
29341;DHT22;16337;59.536;13.468;2022-07-09T02:28:30;10.70;99.90
29341;DHT22;16337;59.536;13.468;2022-07-09T02:30:56;10.70;99.90
29341;DHT22;16337;59.536;13.468;2022-07-09T02:33:23;10.60;99.90
29341;DHT22;16337;59.536;13.468;2022-07-09T02:35:49;10.50;99.90
29341;DHT22;16337;59.536;13.468;2022-07-09T02:38:14;10.50;99.90
29341;DHT22;16337;59.536;13.468;2022-07-09T02:40:40;10.40;99.90
29341;DHT22;16337;59.536;13.468;2022-07-09T02:43:06;10.40;99.90
29341;DHT22;16337;59.536;13.468;2022-07-09T02:45:31;10.30;99.90
29341;DHT22;16337;59.536;13.468;2022-07-09T02:47:57;10.30;99.90
29341;DHT22;16337;59.536;13.468;2022-07-09T02:50:23;10.30;99.90
29341;DHT22;16337;59.536;13.468;2022-07-09T02:52:49;10.30;99.90
29341;DHT22;16337;59.536;13.468;2022-07-09T02:55:14;10.30;99.90
29341;DHT22;16337;59.536;13.468;2022-07-09T02:57:40;10.30;99.90
29341;DHT22;16337;59.536;13.468;2022-07-09T03:00:06;10.30;99.90
29341;DHT22;16337;59.536;13.468;2022-07-09T03:02:32;10.40;99.90
29341;DHT22;16337;59.536;13.468;2022-07-09T03:04:57;10.40;99.90
29341;DHT22;16337;59.536;13.468;2022-07-09T03:07:23;10.50;99.90
29341;DHT22;16337;59.536;13.468;2022-07-09T03:09:49;10.60;99.90
29341;DHT22;16337;59.536;13.468;2022-07-09T03:12:15;10.70;99.90
29341;DHT22;16337;59.536;13.468;2022-07-09T03:14:41;10.60;99.90
29341;DHT22;16337;59.536;13.468;2022-07-09T03:17:07;10.70;99.90
29341;DHT22;16337;59.536;13.468;2022-07-09T03:19:33;10.60;99.90
29341;DHT22;16337;59.536;13.468;2022-07-09T03:21:58;10.60;99.90
29341;DHT22;16337;59.536;13.468;2022-07-09T03:24:24;10.50;99.90
29341;DHT22;16337;59.536;13.468;2022-07-09T03:26:50;10.60;99.90
29341;DHT22;16337;59.536;13.468;2022-07-09T03:29:15;10.70;99.90
29341;DHT22;16337;59.536;13.468;2022-07-09T03:31:41;10.70;99.90
29341;DHT22;16337;59.536;13.468;2022-07-09T03:34:07;10.80;99.90
29341;DHT22;16337;59.536;13.468;2022-07-09T03:36:33;10.90;99.90
29341;DHT22;16337;59.536;13.468;2022-07-09T03:38:58;11.00;99.90
29341;DHT22;16337;59.536;13.468;2022-07-09T03:41:24;11.10;99.90
29341;DHT22;16337;59.536;13.468;2022-07-09T03:43:50;11.20;99.90
29341;DHT22;16337;59.536;13.468;2022-07-09T03:46:15;11.30;99.90
29341;DHT22;16337;59.536;13.468;2022-07-09T03:48:41;11.50;99.90
29341;DHT22;16337;59.536;13.468;2022-07-09T03:51:07;11.60;99.90
29341;DHT22;16337;59.536;13.468;2022-07-09T03:53:33;11.70;99.90
29341;DHT22;16337;59.536;13.468;2022-07-09T03:55:58;11.80;99.90
29341;DHT22;16337;59.536;13.468;2022-07-09T03:58:24;11.90;99.90
29341;DHT22;16337;59.536;13.468;2022-07-09T04:00:50;12.10;99.90
29341;DHT22;16337;59.536;13.468;2022-07-09T04:03:17;12.20;99.90
29341;DHT22;16337;59.536;13.468;2022-07-09T04:05:44;12.30;99.90
29341;DHT22;16337;59.536;13.468;2022-07-09T04:08:10;12.40;99.90
29341;DHT22;16337;59.536;13.468;2022-07-09T04:10:39;12.50;99.90
29341;DHT22;16337;59.536;13.468;2022-07-09T04:13:05;12.60;99.90
29341;DHT22;16337;59.536;13.468;2022-07-09T04:15:30;12.70;99.90
29341;DHT22;16337;59.536;13.468;2022-07-09T04:17:58;12.80;99.90
29341;DHT22;16337;59.536;13.468;2022-07-09T04:20:23;12.90;99.90
29341;DHT22;16337;59.536;13.468;2022-07-09T04:22:51;13.00;99.90
29341;DHT22;16337;59.536;13.468;2022-07-09T04:25:17;13.10;99.90
29341;DHT22;16337;59.536;13.468;2022-07-09T04:27:43;13.20;99.90
29341;DHT22;16337;59.536;13.468;2022-07-09T04:30:10;13.40;99.90
29341;DHT22;16337;59.536;13.468;2022-07-09T04:32:36;13.50;99.90
29341;DHT22;16337;59.536;13.468;2022-07-09T04:35:03;13.70;99.90
29341;DHT22;16337;59.536;13.468;2022-07-09T04:37:28;13.80;99.90
29341;DHT22;16337;59.536;13.468;2022-07-09T04:39:54;14.00;99.90
29341;DHT22;16337;59.536;13.468;2022-07-09T04:42:20;14.20;99.90
29341;DHT22;16337;59.536;13.468;2022-07-09T04:44:46;14.40;99.90
29341;DHT22;16337;59.536;13.468;2022-07-09T04:47:12;14.50;99.90
29341;DHT22;16337;59.536;13.468;2022-07-09T04:49:38;14.60;99.90
29341;DHT22;16337;59.536;13.468;2022-07-09T04:52:04;14.70;99.90
29341;DHT22;16337;59.536;13.468;2022-07-09T04:54:30;14.80;99.90
29341;DHT22;16337;59.536;13.468;2022-07-09T04:56:56;14.90;99.90
29341;DHT22;16337;59.536;13.468;2022-07-09T04:59:21;15.00;99.90
29341;DHT22;16337;59.536;13.468;2022-07-09T05:01:47;15.10;99.90
29341;DHT22;16337;59.536;13.468;2022-07-09T05:04:13;15.20;99.90
29341;DHT22;16337;59.536;13.468;2022-07-09T05:06:39;15.60;99.90
29341;DHT22;16337;59.536;13.468;2022-07-09T05:09:05;16.20;99.90
29341;DHT22;16337;59.536;13.468;2022-07-09T05:11:31;16.70;99.90
29341;DHT22;16337;59.536;13.468;2022-07-09T05:13:58;17.00;99.90
29341;DHT22;16337;59.536;13.468;2022-07-09T05:16:23;17.10;99.90
29341;DHT22;16337;59.536;13.468;2022-07-09T05:18:49;17.30;99.90
29341;DHT22;16337;59.536;13.468;2022-07-09T05:21:15;17.60;99.90
29341;DHT22;16337;59.536;13.468;2022-07-09T05:23:40;17.90;99.90
29341;DHT22;16337;59.536;13.468;2022-07-09T05:26:06;18.20;99.90
29341;DHT22;16337;59.536;13.468;2022-07-09T05:28:32;18.30;99.90
29341;DHT22;16337;59.536;13.468;2022-07-09T05:30:58;18.20;99.90
29341;DHT22;16337;59.536;13.468;2022-07-09T05:33:24;17.90;99.90
29341;DHT22;16337;59.536;13.468;2022-07-09T05:35:49;17.70;99.90
29341;DHT22;16337;59.536;13.468;2022-07-09T05:38:15;17.50;99.90
29341;DHT22;16337;59.536;13.468;2022-07-09T05:40:41;17.30;99.90
29341;DHT22;16337;59.536;13.468;2022-07-09T05:43:07;17.30;99.90
29341;DHT22;16337;59.536;13.468;2022-07-09T05:45:32;17.50;99.90
29341;DHT22;16337;59.536;13.468;2022-07-09T05:47:58;17.70;99.90
29341;DHT22;16337;59.536;13.468;2022-07-09T05:50:24;17.50;99.90
29341;DHT22;16337;59.536;13.468;2022-07-09T05:52:49;17.70;99.90
29341;DHT22;16337;59.536;13.468;2022-07-09T05:55:16;17.90;99.90
29341;DHT22;16337;59.536;13.468;2022-07-09T05:57:42;17.80;99.90
29341;DHT22;16337;59.536;13.468;2022-07-09T06:00:08;18.00;99.90
29341;DHT22;16337;59.536;13.468;2022-07-09T06:02:34;17.90;99.90
29341;DHT22;16337;59.536;13.468;2022-07-09T06:04:59;17.90;99.90
29341;DHT22;16337;59.536;13.468;2022-07-09T06:07:25;17.90;99.90
29341;DHT22;16337;59.536;13.468;2022-07-09T06:09:51;17.90;99.90
29341;DHT22;16337;59.536;13.468;2022-07-09T06:12:16;17.90;99.90
29341;DHT22;16337;59.536;13.468;2022-07-09T06:14:42;18.00;99.90
29341;DHT22;16337;59.536;13.468;2022-07-09T06:17:08;18.30;99.90
29341;DHT22;16337;59.536;13.468;2022-07-09T06:19:34;18.50;99.90
29341;DHT22;16337;59.536;13.468;2022-07-09T06:22:00;18.60;99.90
29341;DHT22;16337;59.536;13.468;2022-07-09T06:24:26;18.70;99.90
29341;DHT22;16337;59.536;13.468;2022-07-09T06:26:52;18.80;99.90
29341;DHT22;16337;59.536;13.468;2022-07-09T06:29:19;18.60;99.90
29341;DHT22;16337;59.536;13.468;2022-07-09T06:31:44;18.60;99.90
29341;DHT22;16337;59.536;13.468;2022-07-09T06:34:10;18.80;99.90
29341;DHT22;16337;59.536;13.468;2022-07-09T06:36:37;18.70;99.90
29341;DHT22;16337;59.536;13.468;2022-07-09T06:39:03;18.70;99.90
29341;DHT22;16337;59.536;13.468;2022-07-09T06:41:48;18.80;99.90
29341;DHT22;16337;59.536;13.468;2022-07-09T06:44:14;18.90;99.90
29341;DHT22;16337;59.536;13.468;2022-07-09T06:46:39;19.10;99.90
29341;DHT22;16337;59.536;13.468;2022-07-09T06:49:05;19.10;99.90
29341;DHT22;16337;59.536;13.468;2022-07-09T06:51:31;19.10;99.90
29341;DHT22;16337;59.536;13.468;2022-07-09T06:53:57;19.00;99.90
29341;DHT22;16337;59.536;13.468;2022-07-09T06:56:23;18.70;99.90
29341;DHT22;16337;59.536;13.468;2022-07-09T06:58:49;18.90;99.90
29341;DHT22;16337;59.536;13.468;2022-07-09T07:01:15;19.00;99.90
29341;DHT22;16337;59.536;13.468;2022-07-09T07:03:40;19.40;99.90
29341;DHT22;16337;59.536;13.468;2022-07-09T07:06:06;19.70;99.90
29341;DHT22;16337;59.536;13.468;2022-07-09T07:08:32;19.80;99.90
29341;DHT22;16337;59.536;13.468;2022-07-09T07:10:57;20.20;99.90
29341;DHT22;16337;59.536;13.468;2022-07-09T07:13:23;20.30;99.90
29341;DHT22;16337;59.536;13.468;2022-07-09T07:15:49;20.20;99.90
29341;DHT22;16337;59.536;13.468;2022-07-09T07:18:16;20.20;99.90
29341;DHT22;16337;59.536;13.468;2022-07-09T07:20:43;20.30;99.90
29341;DHT22;16337;59.536;13.468;2022-07-09T07:23:08;20.10;99.90
29341;DHT22;16337;59.536;13.468;2022-07-09T07:25:34;20.10;99.90
29341;DHT22;16337;59.536;13.468;2022-07-09T07:28:00;20.00;99.90
29341;DHT22;16337;59.536;13.468;2022-07-09T07:30:27;20.10;99.90
29341;DHT22;16337;59.536;13.468;2022-07-09T07:32:52;20.00;99.90
29341;DHT22;16337;59.536;13.468;2022-07-09T07:35:18;19.80;99.90
29341;DHT22;16337;59.536;13.468;2022-07-09T07:37:44;19.90;99.90
29341;DHT22;16337;59.536;13.468;2022-07-09T07:40:10;19.90;99.90
29341;DHT22;16337;59.536;13.468;2022-07-09T07:42:36;20.20;99.90
29341;DHT22;16337;59.536;13.468;2022-07-09T07:45:01;20.30;99.90
29341;DHT22;16337;59.536;13.468;2022-07-09T07:47:27;20.30;99.90
29341;DHT22;16337;59.536;13.468;2022-07-09T07:49:53;20.70;99.90
29341;DHT22;16337;59.536;13.468;2022-07-09T07:52:19;20.70;99.90
29341;DHT22;16337;59.536;13.468;2022-07-09T07:54:45;20.80;99.90
29341;DHT22;16337;59.536;13.468;2022-07-09T07:57:11;21.00;99.90
29341;DHT22;16337;59.536;13.468;2022-07-09T07:59:37;21.20;99.90
29341;DHT22;16337;59.536;13.468;2022-07-09T08:02:03;21.00;98.80
29341;DHT22;16337;59.536;13.468;2022-07-09T08:04:28;21.00;99.90
29341;DHT22;16337;59.536;13.468;2022-07-09T08:06:54;21.30;99.90
29341;DHT22;16337;59.536;13.468;2022-07-09T08:09:20;21.70;99.90
29341;DHT22;16337;59.536;13.468;2022-07-09T08:11:46;21.90;98.00
29341;DHT22;16337;59.536;13.468;2022-07-09T08:14:12;21.90;98.50
29341;DHT22;16337;59.536;13.468;2022-07-09T08:16:37;21.80;96.70
29341;DHT22;16337;59.536;13.468;2022-07-09T08:19:03;21.70;97.50
29341;DHT22;16337;59.536;13.468;2022-07-09T08:21:29;21.70;99.30
29341;DHT22;16337;59.536;13.468;2022-07-09T08:23:54;22.00;98.80
29341;DHT22;16337;59.536;13.468;2022-07-09T08:26:26;22.00;97.30
29341;DHT22;16337;59.536;13.468;2022-07-09T08:28:53;22.10;97.70
29341;DHT22;16337;59.536;13.468;2022-07-09T08:31:21;22.00;97.90
29341;DHT22;16337;59.536;13.468;2022-07-09T08:33:47;22.20;96.30
29341;DHT22;16337;59.536;13.468;2022-07-09T08:36:14;22.10;97.80
29341;DHT22;16337;59.536;13.468;2022-07-09T08:38:39;22.20;95.80
29341;DHT22;16337;59.536;13.468;2022-07-09T08:41:05;22.30;97.50
29341;DHT22;16337;59.536;13.468;2022-07-09T08:43:37;22.20;95.50
29341;DHT22;16337;59.536;13.468;2022-07-09T08:46:04;22.40;95.90
29341;DHT22;16337;59.536;13.468;2022-07-09T08:48:34;22.50;95.00
29341;DHT22;16337;59.536;13.468;2022-07-09T08:51:00;22.70;96.50
29341;DHT22;16337;59.536;13.468;2022-07-09T08:53:27;23.20;96.90
29341;DHT22;16337;59.536;13.468;2022-07-09T08:55:53;23.30;93.50
29341;DHT22;16337;59.536;13.468;2022-07-09T08:58:20;22.90;94.70
29341;DHT22;16337;59.536;13.468;2022-07-09T09:00:48;23.00;96.30
29341;DHT22;16337;59.536;13.468;2022-07-09T09:03:14;23.00;93.60
29341;DHT22;16337;59.536;13.468;2022-07-09T09:05:39;23.00;96.10
29341;DHT22;16337;59.536;13.468;2022-07-09T09:08:19;23.20;96.10
29341;DHT22;16337;59.536;13.468;2022-07-09T09:10:46;23.20;93.40
29341;DHT22;16337;59.536;13.468;2022-07-09T09:13:14;23.30;93.90
29341;DHT22;16337;59.536;13.468;2022-07-09T09:15:44;23.30;94.60
29341;DHT22;16337;59.536;13.468;2022-07-09T09:18:10;23.60;95.90
29341;DHT22;16337;59.536;13.468;2022-07-09T09:20:37;24.50;94.80
29341;DHT22;16337;59.536;13.468;2022-07-09T09:23:04;24.60;91.10
29341;DHT22;16337;59.536;13.468;2022-07-09T09:25:35;23.50;91.00
29341;DHT22;16337;59.536;13.468;2022-07-09T09:28:01;23.10;93.00
29341;DHT22;16337;59.536;13.468;2022-07-09T09:30:29;23.50;92.30
29341;DHT22;16337;59.536;13.468;2022-07-09T09:32:59;23.30;93.60
29341;DHT22;16337;59.536;13.468;2022-07-09T09:35:35;23.00;92.50
29341;DHT22;16337;59.536;13.468;2022-07-09T09:38:01;22.20;93.00
29341;DHT22;16337;59.536;13.468;2022-07-09T09:40:27;21.80;94.50
29341;DHT22;16337;59.536;13.468;2022-07-09T09:42:53;21.50;95.20
29341;DHT22;16337;59.536;13.468;2022-07-09T09:45:20;21.10;94.60
29341;DHT22;16337;59.536;13.468;2022-07-09T09:47:50;21.50;94.80
29341;DHT22;16337;59.536;13.468;2022-07-09T09:50:24;22.00;94.30
29341;DHT22;16337;59.536;13.468;2022-07-09T09:52:53;22.40;92.60
29341;DHT22;16337;59.536;13.468;2022-07-09T09:55:22;22.90;92.20
29341;DHT22;16337;59.536;13.468;2022-07-09T09:57:48;23.50;91.20
29341;DHT22;16337;59.536;13.468;2022-07-09T10:00:15;24.60;92.30
29341;DHT22;16337;59.536;13.468;2022-07-09T10:02:47;24.40;90.00
29341;DHT22;16337;59.536;13.468;2022-07-09T10:05:13;24.00;90.40
29341;DHT22;16337;59.536;13.468;2022-07-09T10:07:42;23.20;90.60
29341;DHT22;16337;59.536;13.468;2022-07-09T10:10:17;22.50;91.60
29341;DHT22;16337;59.536;13.468;2022-07-09T10:12:43;22.20;92.90
29341;DHT22;16337;59.536;13.468;2022-07-09T10:15:20;22.50;93.70
29341;DHT22;16337;59.536;13.468;2022-07-09T10:17:47;22.90;90.70
29341;DHT22;16337;59.536;13.468;2022-07-09T10:20:13;22.90;91.60
29341;DHT22;16337;59.536;13.468;2022-07-09T10:22:48;22.50;91.10
29341;DHT22;16337;59.536;13.468;2022-07-09T10:25:27;22.00;91.60
29341;DHT22;16337;59.536;13.468;2022-07-09T10:27:52;21.70;91.50
29341;DHT22;16337;59.536;13.468;2022-07-09T10:30:29;21.50;92.50
29341;DHT22;16337;59.536;13.468;2022-07-09T10:35:28;23.60;93.10
29341;DHT22;16337;59.536;13.468;2022-07-09T10:37:54;24.50;87.90
29341;DHT22;16337;59.536;13.468;2022-07-09T10:40:22;24.60;89.50
29341;DHT22;16337;59.536;13.468;2022-07-09T10:43:01;23.70;88.00
29341;DHT22;16337;59.536;13.468;2022-07-09T10:45:35;22.80;87.60
29341;DHT22;16337;59.536;13.468;2022-07-09T10:48:03;21.70;90.50
29341;DHT22;16337;59.536;13.468;2022-07-09T10:50:30;21.10;91.00
29341;DHT22;16337;59.536;13.468;2022-07-09T10:52:57;20.90;92.70
29341;DHT22;16337;59.536;13.468;2022-07-09T10:55:26;20.80;93.30
29341;DHT22;16337;59.536;13.468;2022-07-09T10:57:53;20.70;91.70
29341;DHT22;16337;59.536;13.468;2022-07-09T11:00:27;20.70;94.00
29341;DHT22;16337;59.536;13.468;2022-07-09T11:05:27;21.10;92.00
29341;DHT22;16337;59.536;13.468;2022-07-09T11:07:57;21.00;91.60
29341;DHT22;16337;59.536;13.468;2022-07-09T11:10:23;21.10;92.70
29341;DHT22;16337;59.536;13.468;2022-07-09T11:12:50;21.30;91.70
29341;DHT22;16337;59.536;13.468;2022-07-09T11:15:17;21.30;91.80
29341;DHT22;16337;59.536;13.468;2022-07-09T11:17:43;21.20;93.00
29341;DHT22;16337;59.536;13.468;2022-07-09T11:20:11;21.20;93.10
29341;DHT22;16337;59.536;13.468;2022-07-09T11:22:36;21.30;92.60
29341;DHT22;16337;59.536;13.468;2022-07-09T11:25:02;21.40;92.80
29341;DHT22;16337;59.536;13.468;2022-07-09T11:27:28;21.40;90.20
29341;DHT22;16337;59.536;13.468;2022-07-09T11:29:54;21.20;92.40
29341;DHT22;16337;59.536;13.468;2022-07-09T11:32:19;21.20;91.90
29341;DHT22;16337;59.536;13.468;2022-07-09T11:34:51;21.40;92.30
29341;DHT22;16337;59.536;13.468;2022-07-09T11:37:23;21.70;92.90
29341;DHT22;16337;59.536;13.468;2022-07-09T11:39:52;21.70;91.30
29341;DHT22;16337;59.536;13.468;2022-07-09T11:42:21;21.90;92.50
29341;DHT22;16337;59.536;13.468;2022-07-09T11:44:54;21.90;91.50
29341;DHT22;16337;59.536;13.468;2022-07-09T11:47:31;21.70;90.70
29341;DHT22;16337;59.536;13.468;2022-07-09T11:50:05;21.50;92.50
29341;DHT22;16337;59.536;13.468;2022-07-09T11:52:31;21.50;91.60
29341;DHT22;16337;59.536;13.468;2022-07-09T11:57:29;21.50;91.40
29341;DHT22;16337;59.536;13.468;2022-07-09T11:59:55;21.30;90.10
29341;DHT22;16337;59.536;13.468;2022-07-09T12:02:32;21.10;91.30
29341;DHT22;16337;59.536;13.468;2022-07-09T12:04:59;20.90;91.90
29341;DHT22;16337;59.536;13.468;2022-07-09T12:07:25;20.80;93.10
29341;DHT22;16337;59.536;13.468;2022-07-09T12:12:31;20.40;93.20
29341;DHT22;16337;59.536;13.468;2022-07-09T12:14:57;20.30;93.70
29341;DHT22;16337;59.536;13.468;2022-07-09T12:17:27;19.90;95.10
29341;DHT22;16337;59.536;13.468;2022-07-09T12:19:54;19.60;95.30
29341;DHT22;16337;59.536;13.468;2022-07-09T12:22:21;19.60;97.90
29341;DHT22;16337;59.536;13.468;2022-07-09T12:24:49;19.60;97.50
29341;DHT22;16337;59.536;13.468;2022-07-09T12:27:15;19.90;97.50
29341;DHT22;16337;59.536;13.468;2022-07-09T12:29:41;20.20;97.20
29341;DHT22;16337;59.536;13.468;2022-07-09T12:32:06;20.20;96.50
29341;DHT22;16337;59.536;13.468;2022-07-09T12:34:32;20.20;96.60
29341;DHT22;16337;59.536;13.468;2022-07-09T12:36:58;20.40;97.20
29341;DHT22;16337;59.536;13.468;2022-07-09T12:39:24;20.60;96.90
29341;DHT22;16337;59.536;13.468;2022-07-09T12:41:50;20.90;96.10
29341;DHT22;16337;59.536;13.468;2022-07-09T12:44:15;21.00;94.30
29341;DHT22;16337;59.536;13.468;2022-07-09T12:46:41;20.30;96.30
29341;DHT22;16337;59.536;13.468;2022-07-09T12:49:07;19.80;97.20
29341;DHT22;16337;59.536;13.468;2022-07-09T12:51:34;19.30;97.30
29341;DHT22;16337;59.536;13.468;2022-07-09T12:53:59;19.00;96.50
29341;DHT22;16337;59.536;13.468;2022-07-09T12:56:25;18.80;99.40
29341;DHT22;16337;59.536;13.468;2022-07-09T12:58:51;19.10;97.80
29341;DHT22;16337;59.536;13.468;2022-07-09T13:01:18;19.30;97.70
29341;DHT22;16337;59.536;13.468;2022-07-09T13:03:43;19.40;95.20
29341;DHT22;16337;59.536;13.468;2022-07-09T13:06:09;19.50;97.80
29341;DHT22;16337;59.536;13.468;2022-07-09T13:08:53;19.80;96.80
29341;DHT22;16337;59.536;13.468;2022-07-09T13:11:19;19.90;97.10
29341;DHT22;16337;59.536;13.468;2022-07-09T13:13:45;20.40;97.00
29341;DHT22;16337;59.536;13.468;2022-07-09T13:16:10;21.10;96.40
29341;DHT22;16337;59.536;13.468;2022-07-09T13:18:36;21.90;97.00
29341;DHT22;16337;59.536;13.468;2022-07-09T13:21:02;22.30;94.60
29341;DHT22;16337;59.536;13.468;2022-07-09T13:23:27;22.40;92.20
29341;DHT22;16337;59.536;13.468;2022-07-09T13:25:53;22.40;93.00
29341;DHT22;16337;59.536;13.468;2022-07-09T13:28:19;22.30;93.50
29341;DHT22;16337;59.536;13.468;2022-07-09T13:30:44;22.20;93.40
29341;DHT22;16337;59.536;13.468;2022-07-09T13:33:10;22.20;92.10
29341;DHT22;16337;59.536;13.468;2022-07-09T13:35:36;22.10;91.70
29341;DHT22;16337;59.536;13.468;2022-07-09T13:38:02;22.90;94.10
29341;DHT22;16337;59.536;13.468;2022-07-09T13:40:28;23.70;90.00
29341;DHT22;16337;59.536;13.468;2022-07-09T13:42:54;23.80;88.40
29341;DHT22;16337;59.536;13.468;2022-07-09T13:45:20;23.80;84.90
29341;DHT22;16337;59.536;13.468;2022-07-09T13:47:45;24.10;90.40
29341;DHT22;16337;59.536;13.468;2022-07-09T13:50:11;24.30;82.80
29341;DHT22;16337;59.536;13.468;2022-07-09T13:52:36;24.30;81.60
29341;DHT22;16337;59.536;13.468;2022-07-09T13:55:02;24.40;85.80
29341;DHT22;16337;59.536;13.468;2022-07-09T13:57:28;24.50;79.90
29341;DHT22;16337;59.536;13.468;2022-07-09T13:59:54;24.70;81.70
29341;DHT22;16337;59.536;13.468;2022-07-09T14:02:20;25.20;82.00
29341;DHT22;16337;59.536;13.468;2022-07-09T14:04:45;25.60;79.80
29341;DHT22;16337;59.536;13.468;2022-07-09T14:07:12;25.70;83.30
29341;DHT22;16337;59.536;13.468;2022-07-09T14:09:38;26.10;78.50
29341;DHT22;16337;59.536;13.468;2022-07-09T14:12:04;25.90;78.80
29341;DHT22;16337;59.536;13.468;2022-07-09T14:14:29;25.80;76.90
29341;DHT22;16337;59.536;13.468;2022-07-09T14:16:55;25.40;78.90
29341;DHT22;16337;59.536;13.468;2022-07-09T14:19:21;25.20;78.80
29341;DHT22;16337;59.536;13.468;2022-07-09T14:21:47;24.80;79.80
29341;DHT22;16337;59.536;13.468;2022-07-09T14:24:13;24.50;80.40
29341;DHT22;16337;59.536;13.468;2022-07-09T14:26:39;24.80;79.80
29341;DHT22;16337;59.536;13.468;2022-07-09T14:29:07;24.50;78.90
29341;DHT22;16337;59.536;13.468;2022-07-09T14:31:32;24.20;79.80
29341;DHT22;16337;59.536;13.468;2022-07-09T14:33:58;24.30;80.60
29341;DHT22;16337;59.536;13.468;2022-07-09T14:36:24;24.50;77.30
29341;DHT22;16337;59.536;13.468;2022-07-09T14:38:49;24.30;78.50
29341;DHT22;16337;59.536;13.468;2022-07-09T14:41:15;24.30;83.70
29341;DHT22;16337;59.536;13.468;2022-07-09T14:43:41;24.40;78.10
29341;DHT22;16337;59.536;13.468;2022-07-09T14:46:09;24.50;77.70
29341;DHT22;16337;59.536;13.468;2022-07-09T14:48:35;24.30;77.50
29341;DHT22;16337;59.536;13.468;2022-07-09T14:51:01;24.60;79.50
29341;DHT22;16337;59.536;13.468;2022-07-09T14:53:26;24.30;76.10
29341;DHT22;16337;59.536;13.468;2022-07-09T14:55:52;24.60;78.60
29341;DHT22;16337;59.536;13.468;2022-07-09T14:58:18;25.10;77.30
29341;DHT22;16337;59.536;13.468;2022-07-09T15:00:44;25.30;74.20
29341;DHT22;16337;59.536;13.468;2022-07-09T15:03:10;25.30;75.50
29341;DHT22;16337;59.536;13.468;2022-07-09T15:05:36;25.10;74.00
29341;DHT22;16337;59.536;13.468;2022-07-09T15:08:01;24.90;76.20
29341;DHT22;16337;59.536;13.468;2022-07-09T15:10:27;24.50;76.60
29341;DHT22;16337;59.536;13.468;2022-07-09T15:12:53;23.90;75.10
29341;DHT22;16337;59.536;13.468;2022-07-09T15:15:18;23.20;80.80
29341;DHT22;16337;59.536;13.468;2022-07-09T15:17:44;22.90;79.40
29341;DHT22;16337;59.536;13.468;2022-07-09T15:20:10;22.90;80.50
29341;DHT22;16337;59.536;13.468;2022-07-09T15:22:36;23.50;80.30